Time;durP1;ratioP1;P1;durP2;ratioP2;P2;SDS_P1;SDS_P2;PMS_P1;PMS_P2;Temp;Humidity;BMP_temperature;BMP_pressure;BME280_temperature;BME280_humidity;BME280_pressure;Samples;Min_cycle;Max_cycle;Signal;HPM_P1;HPM_P2
2020/12/20 00:02:05;;;;;;;0.20;0.20;;;;;;;;;;5056988;28;20593;-74
2020/12/20 00:04:31;;;;;;;0.20;0.20;;;;;;;;;;5039670;28;20037;-73
2020/12/20 00:06:56;;;;;;;0.20;0.20;;;;;;;;;;5054746;28;20021;-74
2020/12/20 00:09:21;;;;;;;0.20;0.20;;;;;;;;;;5035420;28;20060;-72
2020/12/20 00:11:47;;;;;;;0.20;0.20;;;;;;;;;;5036072;28;20037;-73
2020/12/20 00:14:28;;;;;;;0.20;0.20;;;;;;;;;;5019934;28;20049;-73
2020/12/20 00:16:56;;;;;;;0.10;0.10;;;;;;;;;;5039088;28;20021;-73
2020/12/20 00:19:22;;;;;;;0.20;0.20;;;;;;;;;;5055704;28;20079;-72
2020/12/20 00:21:51;;;;;;;0.20;0.20;;;;;;;;;;5055676;28;20051;-73
2020/12/20 00:24:17;;;;;;;0.10;0.10;;;;;;;;;;5054161;28;20017;-74
2020/12/20 00:26:42;;;;;;;0.10;0.10;;;;;;;;;;5035157;28;20414;-74
2020/12/20 00:29:10;;;;;;;0.20;0.20;;;;;;;;;;5043993;28;20040;-74
2020/12/20 00:31:37;;;;;;;0.20;0.20;;;;;;;;;;5055472;28;20079;-74
2020/12/20 00:34:02;;;;;;;0.10;0.10;;;;;;;;;;5056220;28;20113;-74
2020/12/20 00:36:28;;;;;;;0.10;0.10;;;;;;;;;;5055959;28;20052;-72
2020/12/20 00:38:53;;;;;;;0.20;0.20;;;;;;;;;;5038729;28;20064;-75
2020/12/20 00:41:18;;;;;;;0.20;0.20;;;;;;;;;;5036837;28;20791;-74
2020/12/20 00:43:43;;;;;;;0.10;0.10;;;;;;;;;;5035626;28;20292;-73
2020/12/20 00:46:09;;;;;;;0.20;0.20;;;;;;;;;;5043017;28;20271;-74
2020/12/20 00:48:35;;;;;;;0.10;0.10;;;;;;;;;;5038415;28;20112;-74
2020/12/20 00:51:00;;;;;;;0.20;0.20;;;;;;;;;;5055056;28;20267;-74
2020/12/20 00:53:26;;;;;;;0.10;0.10;;;;;;;;;;5038710;28;20025;-75
2020/12/20 00:55:51;;;;;;;0.20;0.20;;;;;;;;;;5054454;28;20056;-75
2020/12/20 00:58:16;;;;;;;0.20;0.20;;;;;;;;;;5025998;28;20040;-74
2020/12/20 01:00:41;;;;;;;0.10;0.10;;;;;;;;;;5002683;28;20422;-74
2020/12/20 01:03:06;;;;;;;0.20;0.20;;;;;;;;;;5001123;28;20264;-74
2020/12/20 01:05:32;;;;;;;0.13;0.13;;;;;;;;;;5020562;28;20345;-75
2020/12/20 01:07:58;;;;;;;0.20;0.20;;;;;;;;;;5037871;28;21046;-74
2020/12/20 01:10:23;;;;;;;0.10;0.10;;;;;;;;;;5021029;28;20046;-75
2020/12/20 01:12:48;;;;;;;0.10;0.10;;;;;;;;;;4982945;28;20505;-75
2020/12/20 01:15:14;;;;;;;0.10;0.10;;;;;;;;;;4982935;28;20497;-75
2020/12/20 01:17:40;;;;;;;0.10;0.10;;;;;;;;;;4999368;28;20357;-75
2020/12/20 01:20:05;;;;;;;0.20;0.20;;;;;;;;;;5017752;28;20470;-74
2020/12/20 01:22:30;;;;;;;0.20;0.20;;;;;;;;;;5017588;28;20090;-75
2020/12/20 01:24:56;;;;;;;0.20;0.20;;;;;;;;;;5020395;28;20286;-77
2020/12/20 01:27:21;;;;;;;0.10;0.10;;;;;;;;;;4998850;28;20044;-75
2020/12/20 01:29:46;;;;;;;0.10;0.10;;;;;;;;;;5018698;28;20068;-75
2020/12/20 01:32:12;;;;;;;0.20;0.20;;;;;;;;;;5001627;28;20071;-75
2020/12/20 01:34:37;;;;;;;0.20;0.20;;;;;;;;;;5002177;28;20291;-75
2020/12/20 01:37:02;;;;;;;0.10;0.10;;;;;;;;;;4994831;28;20056;-75
2020/12/20 01:39:28;;;;;;;0.10;0.10;;;;;;;;;;5019351;28;20257;-75
2020/12/20 01:41:53;;;;;;;0.10;0.10;;;;;;;;;;4990554;28;20611;-75
2020/12/20 01:44:19;;;;;;;0.20;0.20;;;;;;;;;;4998599;28;20034;-75
2020/12/20 01:46:44;;;;;;;0.10;0.10;;;;;;;;;;5015556;28;20095;-75
2020/12/20 01:49:10;;;;;;;0.20;0.20;;;;;;;;;;5001243;28;20040;-75
2020/12/20 01:51:36;;;;;;;0.10;0.10;;;;;;;;;;5014268;28;20462;-76
2020/12/20 01:54:01;;;;;;;0.20;0.20;;;;;;;;;;5018935;28;20044;-75
2020/12/20 01:56:26;;;;;;;0.20;0.20;;;;;;;;;;5005294;28;20034;-75
2020/12/20 01:58:51;;;;;;;0.20;0.20;;;;;;;;;;5019734;28;20770;-75
2020/12/20 02:01:17;;;;;;;0.20;0.20;;;;;;;;;;5028468;28;20040;-75
2020/12/20 02:03:42;;;;;;;0.20;0.20;;;;;;;;;;5033970;28;20269;-75
2020/12/20 02:06:11;;;;;;;0.10;0.10;;;;;;;;;;5053476;28;20133;-75
2020/12/20 02:08:36;;;;;;;0.10;0.10;;;;;;;;;;5058649;28;20013;-74
2020/12/20 02:11:12;;;;;;;0.20;0.20;;;;;;;;;;5041613;28;20084;-75
2020/12/20 02:13:41;;;;;;;0.20;0.20;;;;;;;;;;5035133;28;20039;-75
2020/12/20 02:16:07;;;;;;;0.17;0.17;;;;;;;;;;5052923;28;20043;-75
2020/12/20 02:18:32;;;;;;;0.20;0.20;;;;;;;;;;5036258;28;20093;-75
2020/12/20 02:20:57;;;;;;;0.20;0.20;;;;;;;;;;5034849;28;20021;-75
2020/12/20 02:23:22;;;;;;;0.20;0.20;;;;;;;;;;5047875;28;20359;-75
2020/12/20 02:25:51;;;;;;;0.20;0.20;;;;;;;;;;5034950;28;20040;-75
2020/12/20 02:28:16;;;;;;;0.20;0.20;;;;;;;;;;5033657;28;20106;-75
2020/12/20 02:30:41;;;;;;;0.10;0.10;;;;;;;;;;5019549;28;20097;-75
2020/12/20 02:33:06;;;;;;;0.20;0.20;;;;;;;;;;5051926;28;20604;-75
2020/12/20 02:35:32;;;;;;;0.13;0.13;;;;;;;;;;5033946;28;20321;-75
2020/12/20 02:37:57;;;;;;;0.10;0.10;;;;;;;;;;5043504;28;20167;-75
2020/12/20 02:40:22;;;;;;;0.13;0.13;;;;;;;;;;5018771;28;20478;-75
2020/12/20 02:42:47;;;;;;;0.20;0.20;;;;;;;;;;5033299;28;20252;-75
2020/12/20 02:45:13;;;;;;;0.20;0.20;;;;;;;;;;5035476;28;20625;-75
2020/12/20 02:47:38;;;;;;;0.20;0.20;;;;;;;;;;5040014;28;20314;-75
2020/12/20 02:50:03;;;;;;;0.20;0.20;;;;;;;;;;5053084;28;20260;-75
2020/12/20 02:52:28;;;;;;;0.20;0.20;;;;;;;;;;5044011;28;20264;-75
2020/12/20 02:54:53;;;;;;;0.20;0.20;;;;;;;;;;5035625;28;20038;-75
2020/12/20 02:57:19;;;;;;;0.20;0.20;;;;;;;;;;5035766;28;20756;-75
2020/12/20 02:59:44;;;;;;;0.20;0.20;;;;;;;;;;5033085;28;20053;-75
2020/12/20 03:02:09;;;;;;;0.20;0.20;;;;;;;;;;5033584;28;20022;-75
2020/12/20 03:04:34;;;;;;;0.10;0.10;;;;;;;;;;5038576;28;20263;-75
2020/12/20 03:07:00;;;;;;;0.20;0.20;;;;;;;;;;5036480;28;20351;-75
2020/12/20 03:09:25;;;;;;;0.15;0.15;;;;;;;;;;5038522;28;20268;-75
2020/12/20 03:11:51;;;;;;;0.20;0.20;;;;;;;;;;5037164;28;20033;-75
2020/12/20 03:14:17;;;;;;;0.10;0.10;;;;;;;;;;5019507;28;20064;-75
2020/12/20 03:16:42;;;;;;;0.20;0.20;;;;;;;;;;5040064;28;20283;-74
2020/12/20 03:19:08;;;;;;;0.10;0.10;;;;;;;;;;5057546;28;20107;-75
2020/12/20 03:21:33;;;;;;;0.10;0.10;;;;;;;;;;5052502;28;20025;-75
2020/12/20 03:24:01;;;;;;;0.20;0.20;;;;;;;;;;5039870;28;20055;-75
2020/12/20 03:26:27;;;;;;;0.20;0.20;;;;;;;;;;5039929;28;20128;-75
2020/12/20 03:28:52;;;;;;;0.10;0.10;;;;;;;;;;5025510;28;20056;-75
2020/12/20 03:31:17;;;;;;;0.20;0.20;;;;;;;;;;5039674;28;20029;-75
2020/12/20 03:33:42;;;;;;;0.20;0.20;;;;;;;;;;5056355;28;20029;-75
2020/12/20 03:36:07;;;;;;;0.20;0.20;;;;;;;;;;5038258;28;20279;-75
2020/12/20 03:38:35;;;;;;;0.20;0.20;;;;;;;;;;5053802;28;20310;-75
2020/12/20 03:41:00;;;;;;;0.20;0.20;;;;;;;;;;5058266;28;20623;-75
2020/12/20 03:43:25;;;;;;;0.20;0.20;;;;;;;;;;5040078;28;20025;-75
2020/12/20 03:45:51;;;;;;;0.20;0.20;;;;;;;;;;5020274;28;20034;-75
2020/12/20 03:48:16;;;;;;;0.20;0.20;;;;;;;;;;5018897;28;20356;-74
2020/12/20 03:50:41;;;;;;;0.20;0.20;;;;;;;;;;5043846;28;20305;-75
2020/12/20 03:53:06;;;;;;;0.20;0.20;;;;;;;;;;5043145;28;20539;-75
2020/12/20 03:55:32;;;;;;;0.20;0.20;;;;;;;;;;5036102;28;20040;-75
2020/12/20 03:57:57;;;;;;;0.20;0.20;;;;;;;;;;5041368;28;20045;-75
2020/12/20 04:00:22;;;;;;;0.20;0.20;;;;;;;;;;4990043;28;20292;-74
2020/12/20 04:02:48;;;;;;;0.20;0.20;;;;;;;;;;5015924;28;20022;-75
2020/12/20 04:05:13;;;;;;;0.20;0.20;;;;;;;;;;5015156;28;20030;-75
2020/12/20 04:07:38;;;;;;;0.20;0.20;;;;;;;;;;5017979;28;20026;-75
2020/12/20 04:10:03;;;;;;;0.17;0.17;;;;;;;;;;4989732;28;20044;-75
2020/12/20 04:12:29;;;;;;;0.10;0.10;;;;;;;;;;5020726;28;20280;-75
2020/12/20 04:14:54;;;;;;;0.20;0.20;;;;;;;;;;5000341;28;20072;-75
2020/12/20 04:17:20;;;;;;;0.20;0.20;;;;;;;;;;5025766;28;20084;-75
2020/12/20 04:19:46;;;;;;;0.20;0.20;;;;;;;;;;4998852;28;20030;-75
2020/12/20 04:22:11;;;;;;;0.20;0.20;;;;;;;;;;5029929;28;20061;-75
2020/12/20 04:24:37;;;;;;;0.20;0.20;;;;;;;;;;5003317;28;20034;-75
2020/12/20 04:27:03;;;;;;;0.20;0.20;;;;;;;;;;4988430;28;20497;-75
2020/12/20 04:29:28;;;;;;;0.20;0.20;;;;;;;;;;5017786;28;20271;-75
2020/12/20 04:31:53;;;;;;;0.20;0.20;;;;;;;;;;5001112;28;20037;-74
2020/12/20 04:34:19;;;;;;;0.20;0.20;;;;;;;;;;5017252;28;20037;-75
2020/12/20 04:36:44;;;;;;;0.20;0.20;;;;;;;;;;5018631;28;20044;-74
2020/12/20 04:39:09;;;;;;;0.20;0.20;;;;;;;;;;5027476;28;20264;-76
2020/12/20 04:41:35;;;;;;;0.20;0.20;;;;;;;;;;5031218;28;20093;-76
2020/12/20 04:44:00;;;;;;;0.15;0.15;;;;;;;;;;5007080;28;20783;-75
2020/12/20 04:46:27;;;;;;;0.20;0.20;;;;;;;;;;4992678;28;20064;-75
2020/12/20 04:48:52;;;;;;;0.20;0.20;;;;;;;;;;5016216;28;20276;-75
2020/12/20 04:51:17;;;;;;;0.10;0.10;;;;;;;;;;4999234;28;20045;-74
2020/12/20 04:53:43;;;;;;;0.20;0.20;;;;;;;;;;5000345;28;20486;-74
2020/12/20 04:56:09;;;;;;;0.17;0.17;;;;;;;;;;4997870;28;20033;-75
2020/12/20 04:58:35;;;;;;;0.20;0.20;;;;;;;;;;5001115;28;20033;-74
2020/12/20 05:01:00;;;;;;;0.20;0.20;;;;;;;;;;5019132;28;20029;-75
2020/12/20 05:03:26;;;;;;;0.20;0.20;;;;;;;;;;5018045;28;20037;-74
2020/12/20 05:05:51;;;;;;;0.20;0.20;;;;;;;;;;4998746;28;20026;-75
2020/12/20 05:08:18;;;;;;;0.20;0.20;;;;;;;;;;5030452;28;20470;-75
2020/12/20 05:10:43;;;;;;;0.10;0.10;;;;;;;;;;5016759;28;20056;-75
2020/12/20 05:13:08;;;;;;;0.10;0.10;;;;;;;;;;4999841;28;20037;-75
2020/12/20 05:15:33;;;;;;;0.13;0.13;;;;;;;;;;5032104;28;20065;-75
2020/12/20 05:18:09;;;;;;;0.10;0.10;;;;;;;;;;4997582;28;20125;-75
2020/12/20 05:20:38;;;;;;;0.20;0.20;;;;;;;;;;4997956;28;20069;-75
2020/12/20 05:23:03;;;;;;;0.20;0.20;;;;;;;;;;5004795;28;20038;-76
2020/12/20 05:25:28;;;;;;;0.10;0.10;;;;;;;;;;5017852;28;20104;-74
2020/12/20 05:28:04;;;;;;;0.17;0.17;;;;;;;;;;5016753;28;20033;-74
2020/12/20 05:30:29;;;;;;;0.15;0.15;;;;;;;;;;4988501;28;20068;-75
2020/12/20 05:32:54;;;;;;;0.20;0.20;;;;;;;;;;5013457;28;20029;-74
2020/12/20 05:35:20;;;;;;;0.20;0.20;;;;;;;;;;4997374;28;20311;-74
2020/12/20 05:37:45;;;;;;;0.20;0.20;;;;;;;;;;4981034;28;20116;-74
2020/12/20 05:40:21;;;;;;;0.20;0.20;;;;;;;;;;4998068;28;20261;-74
2020/12/20 05:43:00;;;;;;;0.20;0.20;;;;;;;;;;4997020;28;20319;-74
2020/12/20 05:45:26;;;;;;;0.20;0.20;;;;;;;;;;5014952;28;20462;-74
2020/12/20 05:47:52;;;;;;;0.20;0.20;;;;;;;;;;4997390;28;20390;-74
2020/12/20 05:50:17;;;;;;;0.20;0.20;;;;;;;;;;4980850;28;20030;-75
2020/12/20 05:52:42;;;;;;;0.20;0.20;;;;;;;;;;4997474;28;20033;-74
2020/12/20 05:55:11;;;;;;;0.20;0.20;;;;;;;;;;4997089;28;20114;-74
2020/12/20 05:57:36;;;;;;;0.20;0.20;;;;;;;;;;5003920;28;20036;-74
2020/12/20 06:00:02;;;;;;;0.10;0.10;;;;;;;;;;5038953;28;20045;-74
2020/12/20 06:02:27;;;;;;;0.13;0.13;;;;;;;;;;5036190;28;20069;-75
2020/12/20 06:04:52;;;;;;;0.20;0.20;;;;;;;;;;5035452;28;20044;-76
2020/12/20 06:07:18;;;;;;;0.20;0.20;;;;;;;;;;5053050;28;20273;-75
2020/12/20 06:09:59;;;;;;;0.20;0.20;;;;;;;;;;5037658;28;20331;-75
2020/12/20 06:12:28;;;;;;;0.20;0.20;;;;;;;;;;5032512;28;20087;-74
2020/12/20 06:14:53;;;;;;;0.20;0.20;;;;;;;;;;5032369;28;20510;-74
2020/12/20 06:17:22;;;;;;;0.20;0.20;;;;;;;;;;5034089;28;20066;-74
2020/12/20 06:19:54;;;;;;;0.20;0.20;;;;;;;;;;5024419;28;20042;-74
2020/12/20 06:22:20;;;;;;;0.20;0.20;;;;;;;;;;5032504;28;20076;-74
2020/12/20 06:24:45;;;;;;;0.20;0.20;;;;;;;;;;5053377;28;20025;-74
2020/12/20 06:27:10;;;;;;;0.20;0.20;;;;;;;;;;5052576;28;20116;-74
2020/12/20 06:29:36;;;;;;;0.10;0.10;;;;;;;;;;5051853;28;20029;-74
2020/12/20 06:32:02;;;;;;;0.20;0.20;;;;;;;;;;5052137;28;20025;-76
2020/12/20 06:34:27;;;;;;;0.20;0.20;;;;;;;;;;5039789;28;20029;-74
2020/12/20 06:36:52;;;;;;;0.20;0.20;;;;;;;;;;5035967;28;20087;-75
2020/12/20 06:39:37;;;;;;;0.20;0.20;;;;;;;;;;5055576;28;20275;-74
2020/12/20 06:42:02;;;;;;;0.20;0.20;;;;;;;;;;5056383;28;20055;-75
2020/12/20 06:44:27;;;;;;;0.20;0.20;;;;;;;;;;5039252;28;20481;-75
2020/12/20 06:46:53;;;;;;;0.20;0.20;;;;;;;;;;5051033;28;20032;-75
2020/12/20 06:49:35;;;;;;;0.20;0.20;;;;;;;;;;5056112;28;20025;-74
2020/12/20 06:52:19;;;;;;;0.20;0.20;;;;;;;;;;5036644;28;20033;-74
2020/12/20 06:55:01;;;;;;;0.10;0.10;;;;;;;;;;5035149;28;20056;-74
2020/12/20 06:57:26;;;;;;;0.20;0.20;;;;;;;;;;5035669;28;20371;-74
2020/12/20 06:59:52;;;;;;;0.20;0.20;;;;;;;;;;5029456;28;20053;-74
2020/12/20 07:02:36;;;;;;;0.20;0.20;;;;;;;;;;5036664;28;20554;-74
2020/12/20 07:05:01;;;;;;;0.20;0.20;;;;;;;;;;5039370;28;20034;-74
2020/12/20 07:07:26;;;;;;;0.20;0.20;;;;;;;;;;5018773;28;20052;-74
2020/12/20 07:09:51;;;;;;;0.20;0.20;;;;;;;;;;5018820;28;20272;-74
2020/12/20 07:12:32;;;;;;;0.20;0.20;;;;;;;;;;5024915;28;20295;-75
2020/12/20 07:14:58;;;;;;;0.20;0.20;;;;;;;;;;5056205;28;20322;-74
2020/12/20 07:17:23;;;;;;;0.20;0.20;;;;;;;;;;5035785;28;20033;-75
2020/12/20 07:20:07;;;;;;;0.20;0.20;;;;;;;;;;5035828;28;20028;-74
2020/12/20 07:22:36;;;;;;;0.20;0.20;;;;;;;;;;5054447;28;20029;-75
2020/12/20 07:25:01;;;;;;;0.20;0.20;;;;;;;;;;5056114;28;20029;-74
2020/12/20 07:27:26;;;;;;;0.20;0.20;;;;;;;;;;5057672;28;20531;-74
2020/12/20 07:29:51;;;;;;;0.20;0.20;;;;;;;;;;5056516;28;20028;-74
2020/12/20 07:32:17;;;;;;;0.20;0.20;;;;;;;;;;5029970;28;20041;-75
2020/12/20 07:34:45;;;;;;;0.20;0.20;;;;;;;;;;5018793;28;20769;-74
2020/12/20 07:37:11;;;;;;;0.20;0.20;;;;;;;;;;5052999;28;20263;-74
2020/12/20 07:39:37;;;;;;;0.20;0.20;;;;;;;;;;5075678;28;20381;-74
2020/12/20 07:42:02;;;;;;;0.20;0.20;;;;;;;;;;5062578;28;20386;-75
2020/12/20 07:44:27;;;;;;;0.20;0.20;;;;;;;;;;5040759;28;20025;-74
2020/12/20 07:46:52;;;;;;;0.20;0.20;;;;;;;;;;5041382;28;20378;-74
2020/12/20 07:49:18;;;;;;;0.20;0.20;;;;;;;;;;5045160;28;20395;-75
2020/12/20 07:51:43;;;;;;;0.20;0.20;;;;;;;;;;5029259;28;20367;-75
2020/12/20 07:54:10;;;;;;;0.20;0.20;;;;;;;;;;5043228;28;20354;-74
2020/12/20 07:56:37;;;;;;;0.17;0.17;;;;;;;;;;5024291;28;20044;-75
2020/12/20 07:59:06;;;;;;;0.20;0.20;;;;;;;;;;5031170;28;20041;-74
2020/12/20 08:01:32;;;;;;;0.20;0.20;;;;;;;;;;4997868;28;20061;-75
2020/12/20 08:04:00;;;;;;;0.20;0.20;;;;;;;;;;5022415;28;20461;-75
2020/12/20 08:06:26;;;;;;;0.20;0.20;;;;;;;;;;4996978;28;20478;-76
2020/12/20 08:08:51;;;;;;;0.20;0.20;;;;;;;;;;4986020;28;20026;-74
2020/12/20 08:11:16;;;;;;;0.10;0.10;;;;;;;;;;5001205;28;20280;-74
2020/12/20 08:13:48;;;;;;;0.20;0.20;;;;;;;;;;5028586;28;20291;-75
2020/12/20 08:16:17;;;;;;;0.20;0.20;;;;;;;;;;5003564;28;20390;-75
2020/12/20 08:18:58;;;;;;;0.20;0.20;;;;;;;;;;5002327;28;20022;-75
2020/12/20 08:21:50;;;;;;;0.20;0.20;;;;;;;;;;5027910;28;20033;-75
2020/12/20 08:24:15;;;;;;;0.20;0.20;;;;;;;;;;5007655;28;20057;-75
2020/12/20 08:26:40;;;;;;;0.20;0.20;;;;;;;;;;5002148;28;20038;-75
2020/12/20 08:29:05;;;;;;;0.20;0.20;;;;;;;;;;5025298;28;20431;-75
2020/12/20 08:31:31;;;;;;;0.20;0.20;;;;;;;;;;4998674;28;20026;-74
2020/12/20 08:33:57;;;;;;;0.20;0.20;;;;;;;;;;5004588;28;20042;-75
2020/12/20 08:36:22;;;;;;;0.20;0.20;;;;;;;;;;5035305;28;20056;-74
2020/12/20 08:38:48;;;;;;;0.20;0.20;;;;;;;;;;4994007;28;20018;-74
2020/12/20 08:41:20;;;;;;;0.15;0.15;;;;;;;;;;5001845;28;20026;-74
2020/12/20 08:43:46;;;;;;;0.20;0.20;;;;;;;;;;5005978;28;20498;-75
2020/12/20 08:46:25;;;;;;;0.20;0.20;;;;;;;;;;5008549;28;20029;-75
2020/12/20 08:48:51;;;;;;;0.20;0.20;;;;;;;;;;5009569;28;20056;-75
2020/12/20 08:51:21;;;;;;;0.10;0.10;;;;;;;;;;5019444;28;20041;-75
2020/12/20 08:53:47;;;;;;;0.20;0.20;;;;;;;;;;5017288;28;20030;-75
2020/12/20 08:56:12;;;;;;;0.13;0.13;;;;;;;;;;4997149;28;20088;-75
2020/12/20 08:58:37;;;;;;;0.20;0.20;;;;;;;;;;5012960;28;20053;-76
2020/12/20 09:01:02;;;;;;;0.20;0.20;;;;;;;;;;5044859;28;20288;-76
2020/12/20 09:03:27;;;;;;;0.20;0.20;;;;;;;;;;5049279;28;20740;-76
2020/12/20 09:05:52;;;;;;;0.20;0.20;;;;;;;;;;5050834;28;20279;-76
2020/12/20 09:08:20;;;;;;;0.20;0.20;;;;;;;;;;5049384;28;20033;-76
2020/12/20 09:10:45;;;;;;;0.20;0.20;;;;;;;;;;5039207;28;20272;-74
2020/12/20 09:13:12;;;;;;;0.20;0.20;;;;;;;;;;5033894;28;20124;-75
2020/12/20 09:15:41;;;;;;;0.20;0.20;;;;;;;;;;5034218;28;20386;-75
2020/12/20 09:18:19;;;;;;;0.20;0.20;;;;;;;;;;5034021;28;20026;-74
2020/12/20 09:20:44;;;;;;;0.20;0.20;;;;;;;;;;5034007;28;20033;-75
2020/12/20 09:23:17;;;;;;;0.20;0.20;;;;;;;;;;5050967;28;20411;-76
2020/12/20 09:25:43;;;;;;;0.10;0.10;;;;;;;;;;5033998;28;20030;-75
2020/12/20 09:28:12;;;;;;;0.20;0.20;;;;;;;;;;5050518;28;20469;-74
2020/12/20 09:30:38;;;;;;;0.10;0.10;;;;;;;;;;5050477;28;20469;-74
2020/12/20 09:33:17;;;;;;;0.10;0.10;;;;;;;;;;5070766;28;20415;-74
2020/12/20 09:35:49;;;;;;;0.10;0.10;;;;;;;;;;5075430;28;20117;-76
2020/12/20 09:38:14;;;;;;;0.20;0.20;;;;;;;;;;5022307;28;20037;-76
2020/12/20 09:40:39;;;;;;;0.20;0.20;;;;;;;;;;5025227;28;20088;-76
2020/12/20 09:43:05;;;;;;;0.20;0.20;;;;;;;;;;5052840;28;20275;-78
2020/12/20 09:45:31;;;;;;;0.10;0.10;;;;;;;;;;5036642;28;20037;-76
2020/12/20 09:47:56;;;;;;;0.10;0.10;;;;;;;;;;5033852;28;20409;-75
2020/12/20 09:50:21;;;;;;;0.20;0.20;;;;;;;;;;5032960;28;20064;-74
2020/12/20 09:52:47;;;;;;;0.10;0.10;;;;;;;;;;5033566;28;20752;-75
2020/12/20 09:55:12;;;;;;;0.20;0.20;;;;;;;;;;5018189;28;20033;-76
2020/12/20 09:57:37;;;;;;;0.10;0.10;;;;;;;;;;5056143;28;20267;-76
2020/12/20 10:00:04;;;;;;;0.20;0.20;;;;;;;;;;5036427;28;20311;-76
2020/12/20 10:02:29;;;;;;;0.20;0.20;;;;;;;;;;5025823;28;20044;-75
2020/12/20 10:04:56;;;;;;;0.20;0.20;;;;;;;;;;5042701;28;20091;-75
2020/12/20 10:07:22;;;;;;;0.20;0.20;;;;;;;;;;5032836;28;20040;-75
2020/12/20 10:09:47;;;;;;;0.20;0.20;;;;;;;;;;5030440;28;20037;-75
2020/12/20 10:12:14;;;;;;;0.20;0.20;;;;;;;;;;5036967;28;20034;-75
2020/12/20 10:14:39;;;;;;;0.17;0.17;;;;;;;;;;5023020;28;20038;-75
2020/12/20 10:17:04;;;;;;;0.20;0.20;;;;;;;;;;5018880;28;20056;-75
2020/12/20 10:19:30;;;;;;;0.17;0.17;;;;;;;;;;5038718;28;20056;-75
2020/12/20 10:21:55;;;;;;;0.20;0.20;;;;;;;;;;5033288;28;20747;-74
2020/12/20 10:24:21;;;;;;;0.20;0.20;;;;;;;;;;5033715;28;20036;-75
2020/12/20 10:26:46;;;;;;;0.20;0.20;;;;;;;;;;5033711;28;20029;-74
2020/12/20 10:29:13;;;;;;;0.20;0.20;;;;;;;;;;5017140;28;20033;-75
2020/12/20 10:31:42;;;;;;;0.20;0.20;;;;;;;;;;5034252;28;20026;-75
2020/12/20 10:34:07;;;;;;;0.10;0.10;;;;;;;;;;5023645;28;20105;-75
2020/12/20 10:36:33;;;;;;;0.20;0.20;;;;;;;;;;5034232;28;20069;-75
2020/12/20 10:38:59;;;;;;;0.10;0.10;;;;;;;;;;5033131;28;20036;-75
2020/12/20 10:41:24;;;;;;;0.10;0.10;;;;;;;;;;5033302;28;20521;-75
2020/12/20 10:43:49;;;;;;;0.20;0.20;;;;;;;;;;5016507;28;20393;-74
2020/12/20 10:46:14;;;;;;;0.20;0.20;;;;;;;;;;5016747;28;20120;-74
2020/12/20 10:48:40;;;;;;;0.20;0.20;;;;;;;;;;5033037;28;20260;-73
2020/12/20 10:51:05;;;;;;;0.20;0.20;;;;;;;;;;5033589;28;20279;-76
2020/12/20 10:53:30;;;;;;;0.20;0.20;;;;;;;;;;5047247;28;20026;-77
2020/12/20 10:55:57;;;;;;;0.17;0.17;;;;;;;;;;5032817;28;20034;-77
2020/12/20 10:58:22;;;;;;;0.20;0.20;;;;;;;;;;5054955;28;20032;-77
2020/12/20 11:00:47;;;;;;;0.20;0.20;;;;;;;;;;5034551;28;20482;-77
2020/12/20 11:03:12;;;;;;;0.20;0.20;;;;;;;;;;5022628;28;20037;-78
2020/12/20 11:05:38;;;;;;;0.20;0.20;;;;;;;;;;5025702;28;20021;-77
2020/12/20 11:08:03;;;;;;;0.20;0.20;;;;;;;;;;5034641;28;20821;-77
2020/12/20 11:10:29;;;;;;;0.20;0.20;;;;;;;;;;5050843;28;20374;-77
2020/12/20 11:12:55;;;;;;;0.20;0.20;;;;;;;;;;5051814;28;20037;-78
2020/12/20 11:15:20;;;;;;;0.20;0.20;;;;;;;;;;5034490;28;20494;-78
2020/12/20 11:17:46;;;;;;;0.20;0.20;;;;;;;;;;5046975;28;20489;-77
2020/12/20 11:20:11;;;;;;;0.20;0.20;;;;;;;;;;5049567;28;20421;-77
2020/12/20 11:22:37;;;;;;;0.20;0.20;;;;;;;;;;5034989;28;20113;-77
2020/12/20 11:25:02;;;;;;;0.20;0.20;;;;;;;;;;5053654;28;20036;-78
2020/12/20 11:27:28;;;;;;;0.20;0.20;;;;;;;;;;5037849;28;20033;-78
2020/12/20 11:29:54;;;;;;;0.10;0.10;;;;;;;;;;5037797;28;20036;-77
2020/12/20 11:32:19;;;;;;;0.13;0.13;;;;;;;;;;5057705;28;20060;-77
2020/12/20 11:34:44;;;;;;;0.10;0.10;;;;;;;;;;5054738;28;20664;-77
2020/12/20 11:37:10;;;;;;;0.20;0.20;;;;;;;;;;5039377;28;20036;-77
2020/12/20 11:39:35;;;;;;;0.20;0.20;;;;;;;;;;5042318;28;20078;-77
2020/12/20 11:42:00;;;;;;;0.20;0.20;;;;;;;;;;5035684;28;20032;-78
2020/12/20 11:44:26;;;;;;;0.20;0.20;;;;;;;;;;5037885;28;20087;-77
2020/12/20 11:46:51;;;;;;;0.20;0.20;;;;;;;;;;5055736;28;20100;-77
2020/12/20 11:49:16;;;;;;;0.20;0.20;;;;;;;;;;5038095;28;20612;-77
2020/12/20 11:51:43;;;;;;;0.20;0.20;;;;;;;;;;5037483;28;20744;-77
2020/12/20 11:54:08;;;;;;;0.20;0.20;;;;;;;;;;5048416;28;20044;-77
2020/12/20 11:56:34;;;;;;;0.20;0.20;;;;;;;;;;5037598;28;20094;-77
2020/12/20 11:58:59;;;;;;;0.20;0.20;;;;;;;;;;5049097;28;20264;-74
2020/12/20 12:01:24;;;;;;;0.20;0.20;;;;;;;;;;5075925;28;20330;-74
2020/12/20 12:03:50;;;;;;;0.20;0.20;;;;;;;;;;5064134;28;20036;-74
2020/12/20 12:06:15;;;;;;;0.20;0.20;;;;;;;;;;5047270;28;20094;-74
2020/12/20 12:08:41;;;;;;;0.20;0.20;;;;;;;;;;5067040;28;20484;-74
2020/12/20 12:11:06;;;;;;;0.20;0.20;;;;;;;;;;5076617;28;20020;-74
2020/12/20 12:13:32;;;;;;;0.20;0.20;;;;;;;;;;5051274;28;20029;-75
2020/12/20 12:15:57;;;;;;;0.20;0.20;;;;;;;;;;5056146;28;20136;-76
2020/12/20 12:18:23;;;;;;;0.20;0.20;;;;;;;;;;5067976;28;20031;-76
2020/12/20 12:20:48;;;;;;;0.20;0.20;;;;;;;;;;5056860;28;20021;-76
2020/12/20 12:23:14;;;;;;;0.20;0.20;;;;;;;;;;5071668;28;20041;-76
2020/12/20 12:25:39;;;;;;;0.20;0.20;;;;;;;;;;5057388;28;20032;-75
2020/12/20 12:28:05;;;;;;;0.20;0.20;;;;;;;;;;5045285;28;20753;-75
2020/12/20 12:30:30;;;;;;;0.20;0.20;;;;;;;;;;5054457;28;20401;-75
2020/12/20 12:32:57;;;;;;;0.20;0.20;;;;;;;;;;5038267;28;20025;-75
2020/12/20 12:35:23;;;;;;;0.10;0.10;;;;;;;;;;5055685;28;20526;-74
2020/12/20 12:37:50;;;;;;;0.20;0.20;;;;;;;;;;5037979;28;20059;-75
2020/12/20 12:40:15;;;;;;;0.20;0.20;;;;;;;;;;5054468;28;20783;-75
2020/12/20 12:42:41;;;;;;;0.20;0.20;;;;;;;;;;5054191;28;20049;-75
2020/12/20 12:45:06;;;;;;;0.20;0.20;;;;;;;;;;5054588;28;20087;-75
2020/12/20 12:47:31;;;;;;;0.20;0.20;;;;;;;;;;5037672;28;20052;-75
2020/12/20 12:49:57;;;;;;;0.17;0.17;;;;;;;;;;5054411;28;20083;-74
2020/12/20 12:52:25;;;;;;;0.20;0.20;;;;;;;;;;5055914;28;20048;-74
2020/12/20 12:54:50;;;;;;;0.15;0.15;;;;;;;;;;5034165;28;20049;-74
2020/12/20 12:57:18;;;;;;;0.20;0.20;;;;;;;;;;5034122;28;20060;-75
2020/12/20 12:59:43;;;;;;;0.20;0.20;;;;;;;;;;5034029;28;20064;-76
2020/12/20 13:02:09;;;;;;;0.20;0.20;;;;;;;;;;5002843;28;20037;-76
2020/12/20 13:04:35;;;;;;;0.20;0.20;;;;;;;;;;5018077;28;20034;-75
2020/12/20 13:07:00;;;;;;;0.20;0.20;;;;;;;;;;5013928;28;20429;-75
2020/12/20 13:09:27;;;;;;;0.20;0.20;;;;;;;;;;4981888;28;20430;-75
2020/12/20 13:11:52;;;;;;;0.20;0.20;;;;;;;;;;5003414;28;20026;-76
2020/12/20 13:14:17;;;;;;;0.20;0.20;;;;;;;;;;4997572;28;20447;-76
2020/12/20 13:16:47;;;;;;;0.20;0.20;;;;;;;;;;5018285;28;20038;-74
2020/12/20 13:19:13;;;;;;;0.20;0.20;;;;;;;;;;5006654;28;20103;-74
2020/12/20 13:21:38;;;;;;;0.20;0.20;;;;;;;;;;4997588;28;20404;-74
2020/12/20 13:24:04;;;;;;;0.20;0.20;;;;;;;;;;5010708;28;20260;-75
2020/12/20 13:26:29;;;;;;;0.20;0.20;;;;;;;;;;5017793;28;20394;-75
2020/12/20 13:28:54;;;;;;;0.20;0.20;;;;;;;;;;5017215;28;20029;-75
2020/12/20 13:31:20;;;;;;;0.20;0.20;;;;;;;;;;5034022;28;20041;-75
2020/12/20 13:33:49;;;;;;;0.20;0.20;;;;;;;;;;5008910;28;20030;-75
2020/12/20 13:36:14;;;;;;;0.20;0.20;;;;;;;;;;5015438;28;20049;-76
2020/12/20 13:38:39;;;;;;;0.20;0.20;;;;;;;;;;4999701;28;20029;-76
2020/12/20 13:41:05;;;;;;;0.28;0.28;;;;;;;;;;5016550;28;20117;-76
2020/12/20 13:43:30;;;;;;;0.20;0.20;;;;;;;;;;4996951;28;20030;-75
2020/12/20 13:45:55;;;;;;;0.20;0.20;;;;;;;;;;4997314;28;20034;-75
2020/12/20 13:48:21;;;;;;;0.20;0.20;;;;;;;;;;5005925;28;20025;-75
2020/12/20 13:50:46;;;;;;;0.20;0.20;;;;;;;;;;5010680;28;20391;-75
2020/12/20 13:53:12;;;;;;;0.20;0.20;;;;;;;;;;4997833;28;20033;-75
2020/12/20 13:55:37;;;;;;;0.20;0.20;;;;;;;;;;5009159;28;20026;-74
2020/12/20 13:58:03;;;;;;;0.20;0.20;;;;;;;;;;4997878;28;20731;-75
2020/12/20 14:00:28;;;;;;;0.10;0.10;;;;;;;;;;5001685;28;20056;-75
2020/12/20 14:02:54;;;;;;;0.20;0.20;;;;;;;;;;5033743;28;20040;-75
2020/12/20 14:05:19;;;;;;;0.20;0.20;;;;;;;;;;5036780;28;20445;-74
2020/12/20 14:07:44;;;;;;;0.20;0.20;;;;;;;;;;5054101;28;20028;-74
2020/12/20 14:10:10;;;;;;;0.10;0.10;;;;;;;;;;5054880;28;20469;-75
2020/12/20 14:12:35;;;;;;;0.20;0.20;;;;;;;;;;5036818;28;20052;-75
2020/12/20 14:15:04;;;;;;;0.20;0.20;;;;;;;;;;5033502;28;20034;-75
2020/12/20 14:17:30;;;;;;;0.20;0.20;;;;;;;;;;5036088;28;20037;-76
2020/12/20 14:19:55;;;;;;;0.20;0.20;;;;;;;;;;5052810;28;20079;-75
2020/12/20 14:22:20;;;;;;;0.20;0.20;;;;;;;;;;5033283;28;20033;-75
2020/12/20 14:24:46;;;;;;;0.20;0.20;;;;;;;;;;5038996;28;20278;-76
2020/12/20 14:27:11;;;;;;;0.17;0.17;;;;;;;;;;5052831;28;20043;-75
2020/12/20 14:29:40;;;;;;;0.20;0.20;;;;;;;;;;5051624;28;20159;-75
2020/12/20 14:32:06;;;;;;;0.20;0.20;;;;;;;;;;5035747;28;20032;-75
2020/12/20 14:34:31;;;;;;;0.20;0.20;;;;;;;;;;5034599;28;20030;-76
2020/12/20 14:36:56;;;;;;;0.20;0.20;;;;;;;;;;5016838;28;20029;-76
2020/12/20 14:39:22;;;;;;;0.15;0.15;;;;;;;;;;5033143;28;20318;-76